Αρχική σελίδα
METAR-TAF:

METAR-TAF

Αεροδρόμια :

Tinian, Νήσοι Μαριάννα, Ηνωμένες Πολιτείες Αμερικής

γεωγραφικό πλάτος: 14-59N, γεωγραφικό μήκος: 145-37E, υψόμετρο: 82 μ

Παρών καιρός

Η αναφορά έγινε 49 λεπτά πριν, στις 04:50 UTC
Άνεμος 15 kt από Α
Θερμοκρασία 29°C
Υγρασία 66%
Πίεση 1011 hPa
Ορατότητα: 11.3 χλμ
Λίγα νέφη σε ύψος 1700 πόδια

METAR: PGWT 040450Z 08015KT 7SM FEW017 29/22 A2986 RMK LAST

Χρόνος: 15:39 (05:39 UTC)

Πρόγνωση Καιρού

Η αναφορά έγινε 6 ώρες και 19 λεπτά πριν, στις 23:20 UTC
Η πρόγνωση ισχύει από τις 04 στις 00 UTC έως τις 04 στις 24 UTC
Άνεμος 14 kt από Α
Ορατότητα: 10 χλμ
Διάσπαρτα νέφη σε ύψος 1800 πόδια
Διάσπαρτα νέφη σε ύψος 7000 πόδια
Όμβροι σε κοντινή απόσταση
Από 04 στις 1100 UTC
Άνεμος 10 kt από Α/BA
Ορατότητα: 10 χλμ
Λίγα νέφη σε ύψος 2100 πόδια

TAF: PGWT 032320Z 0400/0424 09014KT P6SM VCSH SCT018 SCT070 FM041100 07010KT P6SM FEW021

Μετεωρολογικές αναφορές και προγνώσεις για περισσότερα από 4000 αεροδρόμια (δελτία METAR και TAF).

Οι διαθέσιμοι σταθμοί απεικονίζονται στο χάρτη με κίτρινες και κόκκινες κουκκίδες.

Μετακινήστε το ποντίκι πάνω από τις κουκκίδες για να δείτε το όνομα του σταθμού.

Στη συνέχεια, κάντε κλικ για να δείτε τις μετεωρολογικές αναφορές και τις προγνώσεις καιρού.

Για να αλλάξετε το χάρτη: κάντε κλικ στα πράσινα κουμπιά με τον μαύρο σταυρό για να ζουμάρετε, στο πράσινο κουμπί με την παύλα για να αφαιρέσετε το ζουμ ή στα πράσινα βέλη για να αντιπαραβάλλετε χάρτες.


METAR-TAF: